sensor_id;sensor_type;location;lat;lon;timestamp;pressure;altitude;pressure_sealevel;temperature;humidity
5954;BME280;3002;42.642;24.812;2023-07-31T00:01:55;95895.53;;;27.70;49.29
5954;BME280;3002;42.642;24.812;2023-07-31T00:04:20;95884.91;;;27.68;48.43
5954;BME280;3002;42.642;24.812;2023-07-31T00:06:46;95918.09;;;27.92;48.06
5954;BME280;3002;42.642;24.812;2023-07-31T00:09:11;95914.66;;;27.84;48.71
5954;BME280;3002;42.642;24.812;2023-07-31T00:11:37;95916.00;;;27.69;49.01
5954;BME280;3002;42.642;24.812;2023-07-31T00:14:02;95902.63;;;27.67;49.13
5954;BME280;3002;42.642;24.812;2023-07-31T00:16:28;95905.69;;;27.77;49.15
5954;BME280;3002;42.642;24.812;2023-07-31T00:18:53;95890.25;;;27.11;50.03
5954;BME280;3002;42.642;24.812;2023-07-31T00:21:19;95888.66;;;27.17;50.42
5954;BME280;3002;42.642;24.812;2023-07-31T00:23:44;95910.00;;;27.43;49.48
5954;BME280;3002;42.642;24.812;2023-07-31T00:26:10;95890.56;;;27.20;50.25
5954;BME280;3002;42.642;24.812;2023-07-31T00:28:35;95918.72;;;27.35;49.30
5954;BME280;3002;42.642;24.812;2023-07-31T00:31:00;95888.25;;;27.18;49.96
5954;BME280;3002;42.642;24.812;2023-07-31T00:33:27;95880.88;;;27.08;50.19
5954;BME280;3002;42.642;24.812;2023-07-31T00:35:53;95911.28;;;27.32;49.86
5954;BME280;3002;42.642;24.812;2023-07-31T00:38:18;95900.03;;;27.19;50.55
5954;BME280;3002;42.642;24.812;2023-07-31T00:40:44;95892.34;;;26.96;51.42
5954;BME280;3002;42.642;24.812;2023-07-31T00:43:09;95900.91;;;27.09;51.31
5954;BME280;3002;42.642;24.812;2023-07-31T00:45:35;95923.34;;;27.04;51.26
5954;BME280;3002;42.642;24.812;2023-07-31T00:48:01;95927.63;;;27.12;51.42
5954;BME280;3002;42.642;24.812;2023-07-31T00:50:27;95934.72;;;27.09;51.97
5954;BME280;3002;42.642;24.812;2023-07-31T00:52:53;95940.19;;;27.13;52.20
5954;BME280;3002;42.642;24.812;2023-07-31T00:55:19;95941.16;;;27.33;51.07
5954;BME280;3002;42.642;24.812;2023-07-31T00:57:47;95941.75;;;27.14;51.70
5954;BME280;3002;42.642;24.812;2023-07-31T01:00:13;95918.97;;;27.13;51.03
5954;BME280;3002;42.642;24.812;2023-07-31T01:02:38;95954.31;;;27.18;51.62
5954;BME280;3002;42.642;24.812;2023-07-31T01:05:04;95931.25;;;26.98;51.11
5954;BME280;3002;42.642;24.812;2023-07-31T01:07:48;95948.31;;;27.27;52.02
5954;BME280;3002;42.642;24.812;2023-07-31T01:10:22;95938.66;;;27.05;52.15
5954;BME280;3002;42.642;24.812;2023-07-31T01:12:52;95931.75;;;26.86;52.49
5954;BME280;3002;42.642;24.812;2023-07-31T01:15:18;95916.88;;;26.80;53.19
5954;BME280;3002;42.642;24.812;2023-07-31T01:17:44;95908.66;;;26.76;53.05
5954;BME280;3002;42.642;24.812;2023-07-31T01:20:23;95915.09;;;27.07;52.65
5954;BME280;3002;42.642;24.812;2023-07-31T01:23:32;95924.56;;;26.99;53.51
5954;BME280;3002;42.642;24.812;2023-07-31T01:26:24;95912.91;;;26.81;53.70
5954;BME280;3002;42.642;24.812;2023-07-31T01:29:16;95896.66;;;26.97;52.70
5954;BME280;3002;42.642;24.812;2023-07-31T01:31:46;95906.03;;;27.03;52.43
5954;BME280;3002;42.642;24.812;2023-07-31T01:34:13;95894.69;;;26.98;52.61
5954;BME280;3002;42.642;24.812;2023-07-31T01:36:40;95903.63;;;27.12;52.52
5954;BME280;3002;42.642;24.812;2023-07-31T01:39:06;95906.56;;;27.32;52.26
5954;BME280;3002;42.642;24.812;2023-07-31T01:41:31;95919.03;;;27.44;51.72
5954;BME280;3002;42.642;24.812;2023-07-31T01:43:57;95911.91;;;27.46;51.79
5954;BME280;3002;42.642;24.812;2023-07-31T01:46:22;95904.38;;;27.54;52.50
5954;BME280;3002;42.642;24.812;2023-07-31T01:48:48;95921.94;;;27.64;52.59
5954;BME280;3002;42.642;24.812;2023-07-31T01:51:13;95906.09;;;27.75;52.40
5954;BME280;3002;42.642;24.812;2023-07-31T01:53:39;95880.94;;;27.39;52.96
5954;BME280;3002;42.642;24.812;2023-07-31T01:56:04;95886.84;;;27.00;54.02
5954;BME280;3002;42.642;24.812;2023-07-31T01:58:30;95900.19;;;27.01;54.17
5954;BME280;3002;42.642;24.812;2023-07-31T02:00:55;95892.59;;;26.71;54.44
5954;BME280;3002;42.642;24.812;2023-07-31T02:03:21;95905.63;;;26.63;55.02
5954;BME280;3002;42.642;24.812;2023-07-31T02:05:47;95884.84;;;26.59;55.04
5954;BME280;3002;42.642;24.812;2023-07-31T02:08:13;95929.75;;;26.90;55.56
5954;BME280;3002;42.642;24.812;2023-07-31T02:10:39;95899.06;;;26.91;54.38
5954;BME280;3002;42.642;24.812;2023-07-31T02:13:04;95924.03;;;27.18;54.55
5954;BME280;3002;42.642;24.812;2023-07-31T02:15:30;95906.00;;;27.10;54.26
5954;BME280;3002;42.642;24.812;2023-07-31T02:17:56;95932.38;;;26.59;54.18
5954;BME280;3002;42.642;24.812;2023-07-31T02:20:22;95934.94;;;26.81;53.57
5954;BME280;3002;42.642;24.812;2023-07-31T02:22:47;95922.97;;;26.53;53.88
5954;BME280;3002;42.642;24.812;2023-07-31T02:25:13;95915.50;;;26.54;53.71
5954;BME280;3002;42.642;24.812;2023-07-31T02:27:38;95918.69;;;26.49;53.42
5954;BME280;3002;42.642;24.812;2023-07-31T02:30:04;95923.09;;;26.32;54.14
5954;BME280;3002;42.642;24.812;2023-07-31T02:32:30;95949.19;;;26.68;53.95
5954;BME280;3002;42.642;24.812;2023-07-31T02:34:55;95944.16;;;26.56;53.74
5954;BME280;3002;42.642;24.812;2023-07-31T02:37:21;95938.28;;;26.54;54.00
5954;BME280;3002;42.642;24.812;2023-07-31T02:39:46;95953.25;;;26.50;54.11
5954;BME280;3002;42.642;24.812;2023-07-31T02:42:12;95943.88;;;26.40;54.15
5954;BME280;3002;42.642;24.812;2023-07-31T02:44:38;95936.91;;;26.21;54.22
5954;BME280;3002;42.642;24.812;2023-07-31T02:47:04;95952.22;;;26.19;54.09
5954;BME280;3002;42.642;24.812;2023-07-31T02:49:29;95929.09;;;26.12;53.90
5954;BME280;3002;42.642;24.812;2023-07-31T02:51:55;95945.94;;;26.18;54.63
5954;BME280;3002;42.642;24.812;2023-07-31T02:54:20;95955.34;;;26.28;56.08
5954;BME280;3002;42.642;24.812;2023-07-31T02:56:47;95941.03;;;25.81;57.06
5954;BME280;3002;42.642;24.812;2023-07-31T02:59:25;95948.84;;;25.89;57.74
5954;BME280;3002;42.642;24.812;2023-07-31T03:01:50;95949.31;;;25.74;57.98
5954;BME280;3002;42.642;24.812;2023-07-31T03:04:16;95966.22;;;25.47;59.09
5954;BME280;3002;42.642;24.812;2023-07-31T03:06:41;95955.97;;;25.76;59.34
5954;BME280;3002;42.642;24.812;2023-07-31T03:09:07;95969.34;;;25.53;59.84
5954;BME280;3002;42.642;24.812;2023-07-31T03:11:32;95966.59;;;25.56;60.45
5954;BME280;3002;42.642;24.812;2023-07-31T03:13:58;95964.66;;;25.46;60.10
5954;BME280;3002;42.642;24.812;2023-07-31T03:16:23;95958.44;;;25.14;60.10
5954;BME280;3002;42.642;24.812;2023-07-31T03:18:49;95976.84;;;24.88;60.93
5954;BME280;3002;42.642;24.812;2023-07-31T03:21:14;95977.63;;;24.67;62.34
5954;BME280;3002;42.642;24.812;2023-07-31T03:23:39;95967.84;;;25.13;61.21
5954;BME280;3002;42.642;24.812;2023-07-31T03:26:07;95988.19;;;25.04;61.49
5954;BME280;3002;42.642;24.812;2023-07-31T03:28:32;95985.41;;;24.40;63.31
5954;BME280;3002;42.642;24.812;2023-07-31T03:30:58;95977.19;;;24.58;63.10
5954;BME280;3002;42.642;24.812;2023-07-31T03:33:24;95986.59;;;24.46;65.14
5954;BME280;3002;42.642;24.812;2023-07-31T03:35:49;95992.50;;;24.70;64.52
5954;BME280;3002;42.642;24.812;2023-07-31T03:38:15;96000.72;;;24.55;67.26
5954;BME280;3002;42.642;24.812;2023-07-31T03:40:40;95994.44;;;24.48;69.47
5954;BME280;3002;42.642;24.812;2023-07-31T03:43:06;95988.97;;;24.55;69.04
5954;BME280;3002;42.642;24.812;2023-07-31T03:45:31;96019.91;;;24.59;70.25
5954;BME280;3002;42.642;24.812;2023-07-31T03:47:57;95987.28;;;24.18;70.15
5954;BME280;3002;42.642;24.812;2023-07-31T03:50:23;95988.94;;;24.37;69.40
5954;BME280;3002;42.642;24.812;2023-07-31T03:52:50;96006.53;;;24.40;70.87
5954;BME280;3002;42.642;24.812;2023-07-31T03:55:15;95985.72;;;24.21;71.04
5954;BME280;3002;42.642;24.812;2023-07-31T03:57:41;95978.63;;;24.09;71.21
5954;BME280;3002;42.642;24.812;2023-07-31T04:00:07;95994.31;;;24.23;72.33
5954;BME280;3002;42.642;24.812;2023-07-31T04:02:33;95978.72;;;24.34;74.06
5954;BME280;3002;42.642;24.812;2023-07-31T04:04:58;95992.88;;;24.58;73.21
5954;BME280;3002;42.642;24.812;2023-07-31T04:07:24;95993.28;;;24.74;72.92
5954;BME280;3002;42.642;24.812;2023-07-31T04:09:49;95981.91;;;24.58;75.96
5954;BME280;3002;42.642;24.812;2023-07-31T04:12:14;96001.13;;;24.72;74.42
5954;BME280;3002;42.642;24.812;2023-07-31T04:14:40;95973.22;;;24.30;75.37
5954;BME280;3002;42.642;24.812;2023-07-31T04:17:05;95974.44;;;24.37;76.88
5954;BME280;3002;42.642;24.812;2023-07-31T04:19:31;95958.16;;;23.74;77.47
5954;BME280;3002;42.642;24.812;2023-07-31T04:21:56;95951.22;;;23.95;77.98
5954;BME280;3002;42.642;24.812;2023-07-31T04:24:22;95985.72;;;24.28;77.16
5954;BME280;3002;42.642;24.812;2023-07-31T04:26:53;95950.06;;;23.99;78.13
5954;BME280;3002;42.642;24.812;2023-07-31T04:29:18;95964.47;;;23.93;78.66
5954;BME280;3002;42.642;24.812;2023-07-31T04:31:44;95971.19;;;24.02;78.81
5954;BME280;3002;42.642;24.812;2023-07-31T04:34:09;95978.63;;;24.02;76.33
5954;BME280;3002;42.642;24.812;2023-07-31T04:36:35;96019.09;;;24.51;78.54
5954;BME280;3002;42.642;24.812;2023-07-31T04:39:01;95998.72;;;24.52;76.08
5954;BME280;3002;42.642;24.812;2023-07-31T04:41:26;95988.16;;;24.44;73.71
5954;BME280;3002;42.642;24.812;2023-07-31T04:43:52;96008.94;;;24.59;73.17
5954;BME280;3002;42.642;24.812;2023-07-31T04:46:17;96010.13;;;24.65;72.88
5954;BME280;3002;42.642;24.812;2023-07-31T04:48:43;96011.69;;;24.73;73.13
5954;BME280;3002;42.642;24.812;2023-07-31T04:51:08;95986.19;;;24.51;73.26
5954;BME280;3002;42.642;24.812;2023-07-31T04:53:37;96018.00;;;24.95;74.48
5954;BME280;3002;42.642;24.812;2023-07-31T04:56:02;96009.38;;;25.22;73.99
5954;BME280;3002;42.642;24.812;2023-07-31T04:58:28;95989.41;;;25.14;73.69
5954;BME280;3002;42.642;24.812;2023-07-31T05:00:53;95998.81;;;25.17;73.12
5954;BME280;3002;42.642;24.812;2023-07-31T05:03:19;96011.34;;;25.18;72.84
5954;BME280;3002;42.642;24.812;2023-07-31T05:05:44;96008.59;;;25.32;71.04
5954;BME280;3002;42.642;24.812;2023-07-31T05:08:10;96009.78;;;25.24;68.20
5954;BME280;3002;42.642;24.812;2023-07-31T05:10:35;95995.66;;;25.29;67.63
5954;BME280;3002;42.642;24.812;2023-07-31T05:13:01;96025.06;;;25.18;68.40
5954;BME280;3002;42.642;24.812;2023-07-31T05:15:26;95997.63;;;25.03;67.14
5954;BME280;3002;42.642;24.812;2023-07-31T05:17:52;95978.00;;;25.41;67.86
5954;BME280;3002;42.642;24.812;2023-07-31T05:20:17;95988.09;;;25.72;68.02
5954;BME280;3002;42.642;24.812;2023-07-31T05:22:43;95995.94;;;25.88;65.97
5954;BME280;3002;42.642;24.812;2023-07-31T05:25:08;96009.72;;;25.74;64.18
5954;BME280;3002;42.642;24.812;2023-07-31T05:27:34;96017.97;;;25.74;64.60
5954;BME280;3002;42.642;24.812;2023-07-31T05:29:59;96000.34;;;25.46;64.97
5954;BME280;3002;42.642;24.812;2023-07-31T05:32:25;95995.13;;;25.95;64.38
5954;BME280;3002;42.642;24.812;2023-07-31T05:34:51;96010.16;;;25.40;69.39
5954;BME280;3002;42.642;24.812;2023-07-31T05:37:18;95994.88;;;25.32;71.70
5954;BME280;3002;42.642;24.812;2023-07-31T05:39:43;96006.63;;;25.50;71.74
5954;BME280;3002;42.642;24.812;2023-07-31T05:42:09;96025.88;;;25.15;78.01
5954;BME280;3002;42.642;24.812;2023-07-31T05:44:34;96007.03;;;24.92;75.89
5954;BME280;3002;42.642;24.812;2023-07-31T05:47:00;96009.00;;;25.09;76.13
5954;BME280;3002;42.642;24.812;2023-07-31T05:49:25;95974.09;;;24.74;78.26
5954;BME280;3002;42.642;24.812;2023-07-31T05:51:51;95983.53;;;25.26;77.67
5954;BME280;3002;42.642;24.812;2023-07-31T05:54:17;96011.75;;;25.20;82.35
5954;BME280;3002;42.642;24.812;2023-07-31T05:56:42;95987.44;;;25.25;78.96
5954;BME280;3002;42.642;24.812;2023-07-31T05:59:09;96022.34;;;25.14;79.80
5954;BME280;3002;42.642;24.812;2023-07-31T06:01:35;96012.09;;;25.50;77.14
5954;BME280;3002;42.642;24.812;2023-07-31T06:04:00;96021.47;;;25.60;74.03
5954;BME280;3002;42.642;24.812;2023-07-31T06:06:27;96007.00;;;25.52;74.90
5954;BME280;3002;42.642;24.812;2023-07-31T06:08:52;96021.84;;;25.73;70.76
5954;BME280;3002;42.642;24.812;2023-07-31T06:11:19;95993.66;;;25.61;72.66
5954;BME280;3002;42.642;24.812;2023-07-31T06:13:45;96027.34;;;25.73;70.81
5954;BME280;3002;42.642;24.812;2023-07-31T06:16:12;95988.16;;;24.51;76.42
5954;BME280;3002;42.642;24.812;2023-07-31T06:18:37;95989.41;;;25.32;76.65
5954;BME280;3002;42.642;24.812;2023-07-31T06:21:03;95998.41;;;25.22;78.60
5954;BME280;3002;42.642;24.812;2023-07-31T06:23:28;95981.19;;;25.14;78.69
5954;BME280;3002;42.642;24.812;2023-07-31T06:25:54;96010.56;;;27.17;68.27
5954;BME280;3002;42.642;24.812;2023-07-31T06:28:19;96006.22;;;27.58;66.21
5954;BME280;3002;42.642;24.812;2023-07-31T06:30:45;96020.31;;;27.67;65.95
5954;BME280;3002;42.642;24.812;2023-07-31T06:33:10;96024.56;;;26.82;72.09
5954;BME280;3002;42.642;24.812;2023-07-31T06:35:36;96032.94;;;27.19;68.30
5954;BME280;3002;42.642;24.812;2023-07-31T06:38:01;96036.50;;;27.16;65.84
5954;BME280;3002;42.642;24.812;2023-07-31T06:40:28;96037.13;;;27.35;66.40
5954;BME280;3002;42.642;24.812;2023-07-31T06:42:53;96041.84;;;27.34;69.34
5954;BME280;3002;42.642;24.812;2023-07-31T06:45:19;96039.56;;;28.73;61.14
5954;BME280;3002;42.642;24.812;2023-07-31T06:47:44;96037.44;;;29.35;58.74
5954;BME280;3002;42.642;24.812;2023-07-31T06:50:10;96040.38;;;27.23;64.39
5954;BME280;3002;42.642;24.812;2023-07-31T06:52:35;96041.88;;;28.47;59.29
5954;BME280;3002;42.642;24.812;2023-07-31T06:55:03;96035.44;;;28.85;57.26
5954;BME280;3002;42.642;24.812;2023-07-31T06:57:29;96032.31;;;29.80;55.06
5954;BME280;3002;42.642;24.812;2023-07-31T06:59:55;96018.69;;;31.37;51.13
5954;BME280;3002;42.642;24.812;2023-07-31T07:02:20;96019.56;;;30.65;50.92
5954;BME280;3002;42.642;24.812;2023-07-31T07:04:46;96034.19;;;30.06;52.14
5954;BME280;3002;42.642;24.812;2023-07-31T07:07:11;96026.13;;;30.16;52.70
5954;BME280;3002;42.642;24.812;2023-07-31T07:09:36;96031.56;;;30.59;51.96
5954;BME280;3002;42.642;24.812;2023-07-31T07:12:02;96027.59;;;30.60;51.92
5954;BME280;3002;42.642;24.812;2023-07-31T07:14:28;96032.59;;;31.17;50.61
5954;BME280;3002;42.642;24.812;2023-07-31T07:16:53;96035.22;;;31.08;51.12
5954;BME280;3002;42.642;24.812;2023-07-31T07:19:18;96026.59;;;30.50;53.45
5954;BME280;3002;42.642;24.812;2023-07-31T07:21:44;96038.38;;;29.01;57.45
5954;BME280;3002;42.642;24.812;2023-07-31T07:24:09;96041.59;;;30.13;54.24
5954;BME280;3002;42.642;24.812;2023-07-31T07:26:35;96031.81;;;31.01;53.17
5954;BME280;3002;42.642;24.812;2023-07-31T07:29:00;96038.09;;;30.69;54.10
5954;BME280;3002;42.642;24.812;2023-07-31T07:31:27;96033.44;;;32.09;51.78
5954;BME280;3002;42.642;24.812;2023-07-31T07:33:53;96045.47;;;31.89;51.91
5954;BME280;3002;42.642;24.812;2023-07-31T07:36:19;96050.25;;;32.47;49.49
5954;BME280;3002;42.642;24.812;2023-07-31T07:38:45;96046.72;;;32.72;48.39
5954;BME280;3002;42.642;24.812;2023-07-31T07:41:10;96018.13;;;31.59;50.38
5954;BME280;3002;42.642;24.812;2023-07-31T07:43:35;96049.16;;;31.21;51.81
5954;BME280;3002;42.642;24.812;2023-07-31T07:46:01;96037.97;;;31.74;50.42
5954;BME280;3002;42.642;24.812;2023-07-31T07:48:26;96058.44;;;31.47;51.46
5954;BME280;3002;42.642;24.812;2023-07-31T07:50:52;96031.13;;;31.62;50.71
5954;BME280;3002;42.642;24.812;2023-07-31T07:53:17;96039.44;;;30.41;53.75
5954;BME280;3002;42.642;24.812;2023-07-31T07:55:43;96053.31;;;30.77;53.90
5954;BME280;3002;42.642;24.812;2023-07-31T07:58:08;96022.00;;;30.44;53.92
5954;BME280;3002;42.642;24.812;2023-07-31T08:00:34;96049.53;;;30.87;52.91
5954;BME280;3002;42.642;24.812;2023-07-31T08:02:59;96040.75;;;31.57;50.99
5954;BME280;3002;42.642;24.812;2023-07-31T08:05:25;96017.91;;;31.99;49.02
5954;BME280;3002;42.642;24.812;2023-07-31T08:07:50;96036.88;;;32.96;47.71
5954;BME280;3002;42.642;24.812;2023-07-31T08:10:21;96016.00;;;34.21;44.40
5954;BME280;3002;42.642;24.812;2023-07-31T08:12:46;96036.13;;;34.69;44.11
5954;BME280;3002;42.642;24.812;2023-07-31T08:15:11;96018.28;;;32.68;47.35
5954;BME280;3002;42.642;24.812;2023-07-31T08:17:37;96024.91;;;31.41;50.36
5954;BME280;3002;42.642;24.812;2023-07-31T08:20:03;96012.88;;;30.63;51.54
5954;BME280;3002;42.642;24.812;2023-07-31T08:22:28;96040.50;;;31.19;51.37
5954;BME280;3002;42.642;24.812;2023-07-31T08:24:54;96042.19;;;31.78;49.77
5954;BME280;3002;42.642;24.812;2023-07-31T08:27:19;96028.13;;;32.43;48.16
5954;BME280;3002;42.642;24.812;2023-07-31T08:29:45;96036.75;;;31.75;48.64
5954;BME280;3002;42.642;24.812;2023-07-31T08:32:10;96010.50;;;31.79;49.10
5954;BME280;3002;42.642;24.812;2023-07-31T08:34:36;96025.75;;;32.29;47.44
5954;BME280;3002;42.642;24.812;2023-07-31T08:37:01;95997.69;;;31.69;48.51
5954;BME280;3002;42.642;24.812;2023-07-31T08:39:27;96010.88;;;31.94;48.41
5954;BME280;3002;42.642;24.812;2023-07-31T08:41:57;96024.06;;;31.44;49.85
5954;BME280;3002;42.642;24.812;2023-07-31T08:44:23;96021.00;;;29.51;53.80
5954;BME280;3002;42.642;24.812;2023-07-31T08:46:49;96029.66;;;31.08;51.13
5954;BME280;3002;42.642;24.812;2023-07-31T08:49:17;96016.47;;;30.80;50.01
5954;BME280;3002;42.642;24.812;2023-07-31T08:51:46;96022.09;;;31.74;48.94
5954;BME280;3002;42.642;24.812;2023-07-31T08:54:14;96033.66;;;31.56;50.32
5954;BME280;3002;42.642;24.812;2023-07-31T08:56:40;96036.63;;;30.80;52.19
5954;BME280;3002;42.642;24.812;2023-07-31T08:59:06;96026.19;;;33.08;47.26
5954;BME280;3002;42.642;24.812;2023-07-31T09:01:37;96041.56;;;32.99;47.10
5954;BME280;3002;42.642;24.812;2023-07-31T09:04:08;96034.06;;;31.87;49.05
5954;BME280;3002;42.642;24.812;2023-07-31T09:06:37;96029.16;;;33.51;45.20
5954;BME280;3002;42.642;24.812;2023-07-31T09:09:03;96023.06;;;32.67;46.23
5954;BME280;3002;42.642;24.812;2023-07-31T09:11:29;96034.50;;;33.93;44.00
5954;BME280;3002;42.642;24.812;2023-07-31T09:13:57;96037.66;;;35.01;41.89
5954;BME280;3002;42.642;24.812;2023-07-31T09:16:29;96035.09;;;34.10;43.38
5954;BME280;3002;42.642;24.812;2023-07-31T09:18:58;96036.66;;;35.17;42.48
5954;BME280;3002;42.642;24.812;2023-07-31T09:21:24;96036.06;;;36.96;39.09
5954;BME280;3002;42.642;24.812;2023-07-31T09:23:51;96018.72;;;34.87;41.22
5954;BME280;3002;42.642;24.812;2023-07-31T09:26:32;96024.16;;;34.16;42.42
5954;BME280;3002;42.642;24.812;2023-07-31T09:28:59;96023.38;;;33.46;43.99
5954;BME280;3002;42.642;24.812;2023-07-31T09:31:39;96012.50;;;32.20;46.80
5954;BME280;3002;42.642;24.812;2023-07-31T09:34:05;96003.53;;;32.58;45.21
5954;BME280;3002;42.642;24.812;2023-07-31T09:36:31;96004.28;;;33.35;44.80
5954;BME280;3002;42.642;24.812;2023-07-31T09:39:02;95998.41;;;34.46;41.59
5954;BME280;3002;42.642;24.812;2023-07-31T09:41:28;96001.47;;;35.10;39.75
5954;BME280;3002;42.642;24.812;2023-07-31T09:43:54;95989.22;;;35.57;38.39
5954;BME280;3002;42.642;24.812;2023-07-31T09:46:20;95993.22;;;35.65;37.70
5954;BME280;3002;42.642;24.812;2023-07-31T09:48:46;95994.19;;;36.78;36.96
5954;BME280;3002;42.642;24.812;2023-07-31T09:51:11;95998.28;;;35.39;38.83
5954;BME280;3002;42.642;24.812;2023-07-31T09:53:37;95993.53;;;35.77;36.19
5954;BME280;3002;42.642;24.812;2023-07-31T09:56:03;95990.56;;;36.96;35.41
5954;BME280;3002;42.642;24.812;2023-07-31T09:58:34;95986.09;;;36.19;35.57
5954;BME280;3002;42.642;24.812;2023-07-31T10:01:01;95986.88;;;34.66;37.79
5954;BME280;3002;42.642;24.812;2023-07-31T10:03:29;95986.84;;;33.91;38.99
5954;BME280;3002;42.642;24.812;2023-07-31T10:05:57;95988.81;;;34.03;39.07
5954;BME280;3002;42.642;24.812;2023-07-31T10:08:27;95981.09;;;34.51;38.95
5954;BME280;3002;42.642;24.812;2023-07-31T10:10:58;95980.59;;;35.24;37.45
5954;BME280;3002;42.642;24.812;2023-07-31T10:13:24;95986.34;;;33.49;39.39
5954;BME280;3002;42.642;24.812;2023-07-31T10:15:50;95984.28;;;33.15;40.43
5954;BME280;3002;42.642;24.812;2023-07-31T10:18:18;95953.38;;;33.25;40.92
5954;BME280;3002;42.642;24.812;2023-07-31T10:20:44;95976.94;;;33.21;39.20
5954;BME280;3002;42.642;24.812;2023-07-31T10:23:11;95976.25;;;33.77;39.32
5954;BME280;3002;42.642;24.812;2023-07-31T10:25:38;95977.06;;;34.52;37.52
5954;BME280;3002;42.642;24.812;2023-07-31T10:28:04;95981.13;;;37.17;32.68
5954;BME280;3002;42.642;24.812;2023-07-31T10:30:32;95973.41;;;38.14;30.94
5954;BME280;3002;42.642;24.812;2023-07-31T10:32:59;95978.81;;;35.76;34.15
5954;BME280;3002;42.642;24.812;2023-07-31T10:35:24;95965.38;;;35.93;35.22
5954;BME280;3002;42.642;24.812;2023-07-31T10:37:51;95976.06;;;35.95;35.67
5954;BME280;3002;42.642;24.812;2023-07-31T10:40:19;95954.28;;;35.34;35.54
5954;BME280;3002;42.642;24.812;2023-07-31T10:45:33;95956.63;;;34.46;36.30
5954;BME280;3002;42.642;24.812;2023-07-31T10:48:13;95956.53;;;34.06;36.65
5954;BME280;3002;42.642;24.812;2023-07-31T10:50:48;95950.41;;;33.54;36.77
5954;BME280;3002;42.642;24.812;2023-07-31T10:53:29;95948.56;;;34.17;36.46
5954;BME280;3002;42.642;24.812;2023-07-31T10:55:58;95933.88;;;33.38;38.80
5954;BME280;3002;42.642;24.812;2023-07-31T10:58:24;95929.38;;;33.19;38.06
5954;BME280;3002;42.642;24.812;2023-07-31T11:01:05;95945.38;;;34.59;37.28
5954;BME280;3002;42.642;24.812;2023-07-31T11:03:45;95937.28;;;36.06;34.30
5954;BME280;3002;42.642;24.812;2023-07-31T11:06:12;95911.56;;;35.47;34.68
5954;BME280;3002;42.642;24.812;2023-07-31T11:08:45;95922.38;;;35.90;34.20
5954;BME280;3002;42.642;24.812;2023-07-31T11:11:13;95910.66;;;37.52;31.85
5954;BME280;3002;42.642;24.812;2023-07-31T11:16:06;95925.63;;;35.80;34.59
5954;BME280;3002;42.642;24.812;2023-07-31T11:18:32;95920.81;;;38.03;31.56
5954;BME280;3002;42.642;24.812;2023-07-31T11:20:57;95918.09;;;38.23;30.04
5954;BME280;3002;42.642;24.812;2023-07-31T11:23:24;95922.28;;;39.13;28.69
5954;BME280;3002;42.642;24.812;2023-07-31T11:25:50;95907.94;;;39.46;28.33
5954;BME280;3002;42.642;24.812;2023-07-31T11:28:17;95903.59;;;40.44;27.43
5954;BME280;3002;42.642;24.812;2023-07-31T11:30:44;95902.75;;;40.69;27.18
5954;BME280;3002;42.642;24.812;2023-07-31T11:33:12;95901.09;;;38.12;29.07
5954;BME280;3002;42.642;24.812;2023-07-31T11:35:43;95883.44;;;38.21;28.20
5954;BME280;3002;42.642;24.812;2023-07-31T11:38:12;95885.72;;;38.52;27.98
5954;BME280;3002;42.642;24.812;2023-07-31T11:40:42;95902.47;;;36.67;30.18
5954;BME280;3002;42.642;24.812;2023-07-31T11:43:08;95893.00;;;38.29;27.87
5954;BME280;3002;42.642;24.812;2023-07-31T11:45:39;95897.66;;;38.67;28.93
5954;BME280;3002;42.642;24.812;2023-07-31T11:48:06;95891.69;;;38.74;27.53
5954;BME280;3002;42.642;24.812;2023-07-31T11:50:33;95879.91;;;39.26;27.14
5954;BME280;3002;42.642;24.812;2023-07-31T11:53:07;95888.91;;;39.15;27.88
5954;BME280;3002;42.642;24.812;2023-07-31T11:55:34;95882.94;;;39.69;26.58
5954;BME280;3002;42.642;24.812;2023-07-31T11:58:00;95880.63;;;39.93;27.23
5954;BME280;3002;42.642;24.812;2023-07-31T12:00:26;95889.41;;;40.01;26.85
5954;BME280;3002;42.642;24.812;2023-07-31T12:02:52;95879.25;;;40.72;26.51
5954;BME280;3002;42.642;24.812;2023-07-31T12:05:18;95880.22;;;38.93;28.18
5954;BME280;3002;42.642;24.812;2023-07-31T12:07:47;95881.06;;;38.64;28.72
5954;BME280;3002;42.642;24.812;2023-07-31T12:10:23;95885.09;;;40.63;26.64
5954;BME280;3002;42.642;24.812;2023-07-31T12:15:36;95866.72;;;39.58;28.40
5954;BME280;3002;42.642;24.812;2023-07-31T12:18:13;95885.31;;;39.76;27.72
5954;BME280;3002;42.642;24.812;2023-07-31T12:20:44;95889.34;;;39.95;27.43
5954;BME280;3002;42.642;24.812;2023-07-31T12:23:22;95883.81;;;40.64;26.48
5954;BME280;3002;42.642;24.812;2023-07-31T12:26:07;95874.25;;;40.87;26.88
5954;BME280;3002;42.642;24.812;2023-07-31T12:28:39;95877.13;;;40.56;27.29
5954;BME280;3002;42.642;24.812;2023-07-31T12:31:11;95845.66;;;38.31;29.44
5954;BME280;3002;42.642;24.812;2023-07-31T12:33:38;95863.78;;;39.21;28.91
5954;BME280;3002;42.642;24.812;2023-07-31T12:36:07;95863.94;;;38.76;29.70
5954;BME280;3002;42.642;24.812;2023-07-31T12:38:33;95857.00;;;38.72;29.99
5954;BME280;3002;42.642;24.812;2023-07-31T12:40:59;95860.44;;;38.32;29.43
5954;BME280;3002;42.642;24.812;2023-07-31T12:43:25;95854.47;;;37.80;29.02
5954;BME280;3002;42.642;24.812;2023-07-31T12:45:50;95869.81;;;37.84;29.97
5954;BME280;3002;42.642;24.812;2023-07-31T12:48:16;95853.13;;;38.69;29.43
5954;BME280;3002;42.642;24.812;2023-07-31T12:50:41;95864.78;;;38.47;28.56
5954;BME280;3002;42.642;24.812;2023-07-31T12:53:07;95864.09;;;39.28;28.81
5954;BME280;3002;42.642;24.812;2023-07-31T12:55:33;95867.81;;;39.86;28.78
5954;BME280;3002;42.642;24.812;2023-07-31T12:58:02;95863.44;;;37.84;30.40
5954;BME280;3002;42.642;24.812;2023-07-31T13:00:28;95855.81;;;36.16;33.05
5954;BME280;3002;42.642;24.812;2023-07-31T13:02:53;95859.81;;;35.64;34.12
5954;BME280;3002;42.642;24.812;2023-07-31T13:05:20;95868.94;;;35.64;33.84
5954;BME280;3002;42.642;24.812;2023-07-31T13:07:46;95857.78;;;35.55;33.65
5954;BME280;3002;42.642;24.812;2023-07-31T13:10:11;95851.91;;;35.17;34.19
5954;BME280;3002;42.642;24.812;2023-07-31T13:12:37;95860.91;;;35.57;34.27
5954;BME280;3002;42.642;24.812;2023-07-31T13:15:04;95863.47;;;35.88;33.62
5954;BME280;3002;42.642;24.812;2023-07-31T13:17:30;95844.19;;;36.51;33.05